METAR Data
IDs: Format: Raw Decoded Include TAF

Data at: 0843 UTC 20 Sep 2018

PAJZ 200456Z AUTO 00000KT 7SM BKN055 12/06 A3028 RMK AO2 SLP262 T01170056 $
PAJZ 200356Z AUTO 00000KT 6SM HZ OVC055 13/06 A3028 RMK AO2 SLP264 T01280056 $
PAJZ 200256Z AUTO 00000KT 7SM OVC055 13/04 A3029 RMK AO2 SLP263 T01330044 56009 $
PAJZ 200156Z AUTO 32005KT 7SM FEW060 13/04 A3030 RMK AO2 SLP268 T01330039 $
PAJZ 200056Z AUTO 27004KT 7SM FEW055 13/04 A3030 RMK AO2 SLP268 T01330044 $
PAJZ 192356Z AUTO 24006KT 7SM OVC042 13/04 A3031 RMK AO2 SLP274 T01280044 10133 20061 56009 $
PAJZ 192256Z AUTO 25007KT 7SM OVC040 13/04 A3032 RMK AO2 SLP276 T01280044 $
PAJZ 192156Z AUTO 19005KT 7SM FEW042 13/04 A3033 RMK AO2 SLP280 T01280044 $
PAJZ 192056Z AUTO 24004KT 7SM CLR 12/03 A3034 RMK AO2 SLP282 T01220033 58008 $
PAJZ 191956Z AUTO 00000KT 7SM FEW044 11/05 A3035 RMK AO2 SLP287 T01060050 $
PAJZ 191856Z AUTO 29003KT 7SM OVC044 08/06 A3036 RMK AO2 SLP289 T00780056 $
PAJZ 191756Z AUTO 00000KT 7SM OVC044 07/05 A3036 RMK AO2 SLP290 T00670050 10067 20039 50000 $
PAJZ 191656Z AUTO 29003KT 7SM BKN044 OVC095 06/04 A3036 RMK AO2 SLP290 T00560044 $
PAJZ 191556Z AUTO 30004KT 7SM FEW044 OVC100 06/04 A3036 RMK AO2 SLP291 T00560044 $
PAJZ 191456Z AUTO 25003KT 8SM FEW100 04/03 A3036 RMK AO2 SLP291 T00390028 56001 $
PAJZ 191356Z AUTO 30004KT 8SM SCT050 06/04 A3036 RMK AO2 SLP290 T00610039 $
PAJZ 191256Z AUTO 30003KT 8SM BKN045 OVC055 06/04 A3036 RMK AO2 SLP290 T00610044 $
PAJZ 191156Z AUTO 30003KT 8SM FEW045 OVC055 06/04 A3037 RMK AO2 SLP291 T00610044 10106 20056 50003 $
PAJZ 191056Z AUTO 27003KT 8SM SCT046 OVC060 07/04 A3037 RMK AO2 SLP292 T00670044 $
PAJZ 190956Z AUTO 00000KT 8SM FEW046 OVC060 06/04 A3036 RMK AO2 SLP291 T00610044 $
PAJZ 190856Z AUTO 34004KT 8SM OVC060 08/04 A3036 RMK AO2 SLP288 T00830044 51007 $
PAJZ 190756Z AUTO 00000KT 8SM FEW055 08/04 A3035 RMK AO2 SLP286 T00830044 401560022 $
PAJZ 190656Z AUTO 33005KT 8SM FEW045 OVC075 09/06 A3035 RMK AO2 SLP284 T00890056 $
PAJZ 190556Z AUTO 34005KT 8SM OVC043 11/06 A3034 RMK AO2 SLP281 T01060056 10156 20106 53013 $
PAJZ 190456Z AUTO 36005KT 7SM OVC043 11/06 A3032 RMK AO2 SLP276 T01110061 $
PAJZ 190356Z AUTO 02006KT 7SM FEW080 13/06 A3031 RMK AO2 SLP271 T01280061 $
PAJZ 190256Z AUTO 35007KT 320V020 7SM BKN039 OVC080 15/07 A3030 RMK AO2 SLP269 T01500067 53001 $
PAJZ 190156Z AUTO 35007KT 6SM HZ OVC080 16/07 A3030 RMK AO2 SLP268 T01560067 $
PAJZ 190056Z AUTO 35006KT 7SM OVC080 15/07 A3030 RMK AO2 SLP268 T01500067 $
PAJZ 182356Z AUTO 31008KT 7SM FEW060 OVC080 16/08 A3030 RMK AO2 SLP268 T01560078 10156 20050 58001 $
PAJZ 182256Z AUTO 34007KT 7SM FEW030 SCT055 OVC075 14/07 A3031 RMK AO2 SLP271 T01440072 $
PAJZ 182156Z AUTO 36007KT 7SM FEW050 OVC065 13/07 A3031 RMK AO2 SLP271 T01330067 $
PAJZ 182056Z AUTO 34005KT 6SM HZ OVC065 13/06 A3030 RMK AO2 SLP268 T01280061 50001 $